Bauerfield Efate, Vanuatu
Current Conditions -  °F | °C
As of 8:00 AM on Saturday 25 Oct 2014 (Local Time) from NVVV Reporting Station
Overcast Overcast  
Wind Chill: 73°   Ceiling: 2000
Heat Index: 73°   Visibility: 6mi
Dew Point: 72°   Wind: 5mph
Humidity: 94%   Direction: 80°E
Pressure: 30"   Gusts: NA
Location:  17.7°S, 168.3°E
Report Text: NVVV 242100Z 08004KT 9999 BKN020 FEW025CB OVC100 23/22 Q1016 RMK NIL
Loading
Personal Weather Stations






























Interactive Weather Map
Tropical Storm Tracking
New forecast layout! Learn more

10-Day Weather Forecast

Advertisements
Track Severe Weather on mobile